Time;durP1;ratioP1;P1;durP2;ratioP2;P2;SDS_P1;SDS_P2;PMS_P1;PMS_P2;Temp;Humidity;BMP_temperature;BMP_pressure;BME280_temperature;BME280_humidity;BME280_pressure;Samples;Min_cycle;Max_cycle;Signal;HPM_P1;HPM_P2
2024/04/09 00:01:24;;;;;;;12.30;7.82;;;12.10;99.90;;;;;;5332377;26;20005;-54
2024/04/09 00:03:50;;;;;;;11.43;8.02;;;12.10;99.90;;;;;;5336269;26;20008;-53
2024/04/09 00:06:19;;;;;;;10.13;8.02;;;12.10;99.90;;;;;;5312503;26;20016;-53
2024/04/09 00:08:45;;;;;;;11.70;8.38;;;12.10;99.90;;;;;;5332094;26;20008;-54
2024/04/09 00:11:21;;;;;;;11.40;7.72;;;12.10;99.90;;;;;;5334288;26;19997;-52
2024/04/09 00:13:51;;;;;;;11.10;8.55;;;12.10;99.90;;;;;;5307969;26;20458;-52
2024/04/09 00:16:22;;;;;;;10.95;8.35;;;12.10;99.90;;;;;;5329388;26;20820;-54
2024/04/09 00:18:53;;;;;;;13.32;9.07;;;12.20;99.90;;;;;;5304210;26;20440;-50
2024/04/09 00:21:21;;;;;;;16.65;10.10;;;12.20;99.90;;;;;;5332454;26;20001;-49
2024/04/09 00:23:47;;;;;;;11.10;8.10;;;12.20;99.90;;;;;;5336281;26;20000;-49
2024/04/09 00:26:13;;;;;;;14.52;8.90;;;12.20;99.90;;;;;;5332601;26;20019;-52
2024/04/09 00:28:39;;;;;;;11.80;8.02;;;12.30;99.90;;;;;;5308705;26;20489;-50
2024/04/09 00:31:05;;;;;;;15.23;10.38;;;12.30;99.90;;;;;;5313397;26;20016;-49
2024/04/09 00:33:30;;;;;;;12.27;9.23;;;12.30;99.90;;;;;;5336793;26;20078;-52
2024/04/09 00:35:56;;;;;;;14.55;10.25;;;12.40;99.90;;;;;;5333202;26;20019;-52
2024/04/09 00:38:23;;;;;;;13.07;8.10;;;12.40;99.90;;;;;;5338486;26;20462;-54
2024/04/09 00:40:49;;;;;;;12.07;9.07;;;12.40;99.90;;;;;;5297892;26;20002;-51
2024/04/09 00:43:15;;;;;;;13.27;8.55;;;12.40;99.90;;;;;;5335581;26;20012;-52
2024/04/09 00:45:45;;;;;;;11.52;7.40;;;12.50;99.90;;;;;;5335183;26;20041;-52
2024/04/09 00:48:12;;;;;;;14.38;9.30;;;12.50;99.90;;;;;;5334938;26;20011;-52
2024/04/09 00:50:41;;;;;;;13.88;9.18;;;12.50;99.90;;;;;;5339010;26;20711;-51
2024/04/09 00:53:10;;;;;;;14.30;9.20;;;12.50;99.90;;;;;;5299614;26;20001;-53
2024/04/09 00:55:40;;;;;;;12.45;9.30;;;12.40;99.90;;;;;;5330325;26;20009;-52
2024/04/09 00:58:09;;;;;;;11.32;9.27;;;12.50;99.90;;;;;;5340108;26;20001;-52
2024/04/09 01:00:35;;;;;;;15.95;9.05;;;12.50;99.90;;;;;;5324124;26;20547;-52
2024/04/09 01:03:01;;;;;;;10.55;9.18;;;12.50;99.90;;;;;;5335572;26;19996;-49
2024/04/09 01:05:27;;;;;;;11.80;8.82;;;12.50;99.90;;;;;;5325415;26;19997;-54
2024/04/09 01:07:52;;;;;;;13.15;9.40;;;12.40;99.90;;;;;;5336063;26;20000;-54
2024/04/09 01:10:18;;;;;;;13.93;9.60;;;12.40;99.90;;;;;;5335065;26;20013;-50
2024/04/09 01:12:44;;;;;;;12.32;9.75;;;12.40;99.90;;;;;;5335242;26;20352;-52
2024/04/09 01:15:12;;;;;;;10.98;9.27;;;12.40;99.90;;;;;;5304750;26;20001;-50
2024/04/09 01:17:38;;;;;;;10.68;9.10;;;12.40;99.90;;;;;;5332038;26;20608;-50
2024/04/09 01:20:07;;;;;;;13.63;10.00;;;12.30;99.90;;;;;;5330011;26;20017;-50
2024/04/09 01:22:33;;;;;;;17.45;9.90;;;12.30;99.90;;;;;;5303499;26;20064;-53
2024/04/09 01:24:58;;;;;;;12.82;9.20;;;12.30;99.90;;;;;;5333821;26;20725;-49
2024/04/09 01:27:25;;;;;;;14.95;10.63;;;12.20;99.90;;;;;;5329432;26;20001;-50
2024/04/09 01:29:51;;;;;;;14.55;11.18;;;12.30;99.90;;;;;;5337093;26;20015;-52
2024/04/09 01:32:17;;;;;;;15.50;10.68;;;12.30;99.90;;;;;;5333063;26;19997;-52
2024/04/09 01:34:44;;;;;;;13.18;9.60;;;12.20;99.90;;;;;;5329156;26;20012;-54
2024/04/09 01:37:11;;;;;;;13.98;10.80;;;12.20;99.90;;;;;;5334535;26;20001;-53
2024/04/09 01:39:38;;;;;;;15.55;9.60;;;12.20;99.90;;;;;;5328537;26;20079;-53
2024/04/09 01:42:03;;;;;;;12.60;9.18;;;12.20;99.90;;;;;;5333676;26;20013;-53
2024/04/09 01:44:29;;;;;;;13.80;9.52;;;12.20;99.90;;;;;;5329784;26;20424;-52
2024/04/09 01:46:55;;;;;;;14.20;10.95;;;12.20;99.90;;;;;;5334668;26;19997;-52
2024/04/09 01:49:21;;;;;;;15.77;11.38;;;12.10;99.90;;;;;;5329084;26;20002;-54
2024/04/09 01:51:46;;;;;;;14.30;10.38;;;12.10;99.90;;;;;;5334553;26;20541;-52
2024/04/09 01:54:12;;;;;;;13.70;10.50;;;12.10;99.90;;;;;;5304176;26;19997;-53
2024/04/09 01:56:37;;;;;;;11.80;9.15;;;12.10;99.90;;;;;;5300302;26;19993;-50
2024/04/09 01:59:03;;;;;;;15.25;10.90;;;12.10;99.90;;;;;;5328469;26;20001;-50
2024/04/09 02:01:30;;;;;;;15.60;11.43;;;12.20;99.90;;;;;;5324938;26;19993;-53
2024/04/09 02:03:56;;;;;;;12.85;9.95;;;12.30;99.90;;;;;;5332053;26;20009;-49
2024/04/09 02:06:26;;;;;;;13.98;9.48;;;12.20;99.90;;;;;;5330305;26;20012;-52
2024/04/09 02:08:52;;;;;;;14.35;10.30;;;12.30;99.90;;;;;;5329610;26;20001;-51
2024/04/09 02:11:18;;;;;;;14.20;10.18;;;12.30;99.90;;;;;;5331505;26;20005;-50
2024/04/09 02:13:47;;;;;;;16.50;9.82;;;12.30;99.90;;;;;;5303175;26;20005;-52
2024/04/09 02:16:15;;;;;;;13.73;9.30;;;12.40;99.90;;;;;;5330739;26;20005;-50
2024/04/09 02:18:42;;;;;;;15.30;9.90;;;12.40;99.90;;;;;;5335688;26;20008;-54
2024/04/09 02:21:09;;;;;;;15.23;8.95;;;12.50;99.90;;;;;;5333686;26;20024;-52
2024/04/09 02:23:39;;;;;;;10.23;7.85;;;12.50;99.90;;;;;;5334482;26;20098;-52
2024/04/09 02:26:05;;;;;;;10.13;8.43;;;12.50;99.90;;;;;;5334068;26;20020;-49
2024/04/09 02:28:32;;;;;;;10.85;8.70;;;12.50;99.90;;;;;;5337279;26;20019;-49
2024/04/09 02:30:58;;;;;;;12.73;9.02;;;12.50;99.90;;;;;;5334363;26;20011;-51
2024/04/09 02:33:24;;;;;;;13.10;8.75;;;12.50;99.90;;;;;;5305180;26;19997;-53
2024/04/09 02:35:54;;;;;;;12.63;8.52;;;12.50;99.90;;;;;;5332471;26;19993;-54
2024/04/09 02:38:20;;;;;;;12.50;8.18;;;12.50;99.90;;;;;;5301871;26;20083;-53
2024/04/09 02:40:46;;;;;;;12.20;7.95;;;12.50;99.90;;;;;;5335007;26;20009;-53
2024/04/09 02:43:11;;;;;;;14.90;8.80;;;12.50;99.90;;;;;;5334840;26;20280;-53
2024/04/09 02:45:37;;;;;;;13.57;8.57;;;12.50;99.90;;;;;;5325223;26;20053;-51
2024/04/09 02:48:04;;;;;;;11.05;7.57;;;12.60;99.90;;;;;;5332261;26;20329;-53
2024/04/09 02:50:29;;;;;;;14.02;8.25;;;12.60;99.90;;;;;;5334732;26;20005;-54
2024/04/09 02:52:55;;;;;;;12.60;9.32;;;12.60;99.90;;;;;;5334389;26;20075;-57
2024/04/09 02:55:20;;;;;;;11.32;8.65;;;12.50;99.90;;;;;;5330477;26;20496;-54
2024/04/09 02:57:48;;;;;;;12.23;9.38;;;12.60;99.90;;;;;;5332783;26;20028;-53
2024/04/09 03:00:20;;;;;;;12.52;8.95;;;12.60;99.90;;;;;;5333947;26;20011;-55
2024/04/09 03:02:53;;;;;;;13.30;9.13;;;12.60;99.90;;;;;;5331552;26;20807;-54
2024/04/09 03:05:28;;;;;;;13.57;9.70;;;12.60;99.90;;;;;;5334082;26;20004;-52
2024/04/09 03:07:53;;;;;;;13.32;8.93;;;12.50;99.90;;;;;;5334581;26;20023;-55
2024/04/09 03:10:19;;;;;;;12.88;9.35;;;12.50;99.90;;;;;;5333205;26;20040;-52
2024/04/09 03:12:44;;;;;;;13.27;9.52;;;12.50;99.90;;;;;;5307908;26;19997;-54
2024/04/09 03:15:10;;;;;;;12.45;9.23;;;12.50;99.90;;;;;;5306669;26;20087;-53
2024/04/09 03:17:36;;;;;;;13.93;9.98;;;12.50;99.90;;;;;;5331323;26;19997;-52
2024/04/09 03:20:04;;;;;;;16.65;9.75;;;12.50;99.90;;;;;;5333291;26;20019;-56
2024/04/09 03:22:29;;;;;;;13.13;8.73;;;12.50;99.90;;;;;;5334722;26;19992;-56
2024/04/09 03:24:55;;;;;;;11.98;9.27;;;12.50;99.90;;;;;;5333232;26;21069;-55
2024/04/09 03:27:20;;;;;;;17.55;9.48;;;12.50;99.90;;;;;;5308672;26;20001;-51
2024/04/09 03:29:49;;;;;;;13.32;9.77;;;12.50;99.90;;;;;;5335552;26;20011;-53
2024/04/09 03:32:15;;;;;;;16.58;11.57;;;12.50;99.90;;;;;;5332932;26;19997;-55
2024/04/09 03:34:40;;;;;;;18.70;9.98;;;12.50;99.90;;;;;;5331468;26;20686;-55
2024/04/09 03:37:06;;;;;;;13.57;10.05;;;12.50;99.90;;;;;;5333042;26;20560;-53
2024/04/09 03:39:34;;;;;;;14.50;8.90;;;12.50;99.90;;;;;;5331381;26;20023;-53
2024/04/09 03:41:59;;;;;;;11.57;8.95;;;12.50;99.90;;;;;;5334626;26;19992;-52
2024/04/09 03:44:25;;;;;;;17.38;9.95;;;12.50;99.90;;;;;;5332601;26;20791;-52
2024/04/09 03:46:51;;;;;;;15.00;9.15;;;12.60;99.90;;;;;;5339227;26;20015;-49
2024/04/09 03:49:16;;;;;;;13.38;10.40;;;12.60;99.90;;;;;;5330696;26;20006;-52
2024/04/09 03:51:42;;;;;;;14.30;9.55;;;12.60;99.90;;;;;;5335845;26;19997;-55
2024/04/09 03:54:09;;;;;;;15.88;9.65;;;12.50;99.90;;;;;;5329400;26;20005;-53
2024/04/09 03:56:34;;;;;;;14.75;9.40;;;12.60;99.90;;;;;;5333534;26;19997;-52
2024/04/09 03:59:00;;;;;;;11.20;8.85;;;12.60;99.90;;;;;;5332623;26;20013;-54
2024/04/09 04:01:25;;;;;;;13.48;9.70;;;12.60;99.90;;;;;;5333389;26;20439;-51
2024/04/09 04:03:51;;;;;;;15.75;9.43;;;12.60;99.90;;;;;;5333176;26;20015;-52
2024/04/09 04:06:16;;;;;;;11.52;8.88;;;12.60;99.90;;;;;;5330645;26;20008;-52
2024/04/09 04:08:44;;;;;;;14.77;9.57;;;12.60;99.90;;;;;;5339391;26;20016;-54
2024/04/09 04:11:14;;;;;;;11.63;8.25;;;12.70;99.90;;;;;;5335549;26;20075;-53
2024/04/09 04:13:40;;;;;;;13.40;8.38;;;12.60;99.90;;;;;;5307425;26;20160;-53
2024/04/09 04:16:12;;;;;;;9.70;7.18;;;12.70;99.90;;;;;;5338246;26;20009;-56
2024/04/09 04:18:46;;;;;;;17.48;9.93;;;12.70;99.90;;;;;;5334100;26;20001;-55
2024/04/09 04:21:19;;;;;;;11.90;8.15;;;12.70;99.90;;;;;;5335602;26;20009;-53
2024/04/09 04:23:46;;;;;;;12.02;8.15;;;12.70;99.90;;;;;;5335584;26;20617;-54
2024/04/09 04:26:18;;;;;;;12.35;8.82;;;12.70;99.90;;;;;;5340126;26;20807;-55
2024/04/09 04:28:46;;;;;;;11.27;8.07;;;12.80;99.90;;;;;;5339551;26;20439;-53
2024/04/09 04:31:12;;;;;;;10.82;8.45;;;12.80;99.90;;;;;;5336581;26;20773;-50
2024/04/09 04:33:39;;;;;;;12.55;8.70;;;12.80;99.90;;;;;;5330919;26;20005;-54
2024/04/09 04:36:05;;;;;;;10.95;8.60;;;12.80;99.90;;;;;;5335022;26;20480;-56
2024/04/09 04:38:31;;;;;;;15.80;8.68;;;12.80;99.90;;;;;;5307737;26;20009;-53
2024/04/09 04:40:57;;;;;;;10.48;7.80;;;12.80;99.90;;;;;;5337134;26;20008;-56
2024/04/09 04:43:23;;;;;;;9.45;7.95;;;12.90;99.90;;;;;;5331501;26;20075;-58
2024/04/09 04:45:49;;;;;;;12.40;8.35;;;12.80;99.90;;;;;;5335477;26;20028;-54
2024/04/09 04:48:16;;;;;;;8.90;7.25;;;12.90;99.90;;;;;;5332719;26;19998;-52
2024/04/09 04:50:42;;;;;;;16.75;8.60;;;12.90;99.90;;;;;;5332801;26;20013;-51
2024/04/09 04:53:08;;;;;;;13.55;7.85;;;13.00;99.90;;;;;;5334018;26;20325;-54
2024/04/09 04:55:34;;;;;;;8.75;6.13;;;13.00;99.90;;;;;;5330720;26;20019;-56
2024/04/09 04:58:00;;;;;;;10.02;7.03;;;13.00;99.90;;;;;;5332266;26;19993;-54
2024/04/09 05:00:26;;;;;;;8.77;6.35;;;13.10;99.90;;;;;;5305890;26;20040;-49
2024/04/09 05:02:52;;;;;;;12.45;5.85;;;13.10;99.90;;;;;;5332942;26;20012;-53
2024/04/09 05:05:17;;;;;;;12.80;6.05;;;13.20;99.90;;;;;;5336766;26;20027;-54
2024/04/09 05:07:43;;;;;;;11.48;6.35;;;13.30;99.90;;;;;;5334503;26;20350;-51
2024/04/09 05:10:12;;;;;;;8.10;5.75;;;13.30;99.90;;;;;;5332036;26;20008;-51
2024/04/09 05:12:44;;;;;;;11.13;5.15;;;13.40;99.90;;;;;;5336982;26;20103;-54
2024/04/09 05:15:10;;;;;;;9.02;5.30;;;13.50;99.90;;;;;;5327892;26;20033;-52
2024/04/09 05:17:36;;;;;;;9.65;6.22;;;13.60;99.90;;;;;;5336773;26;20004;-57
2024/04/09 05:20:09;;;;;;;10.27;5.57;;;13.60;99.90;;;;;;5333120;26;20084;-53
2024/04/09 05:22:39;;;;;;;8.40;4.40;;;13.70;99.90;;;;;;5337106;26;20722;-51
2024/04/09 05:25:09;;;;;;;9.65;4.68;;;13.80;99.90;;;;;;5300979;26;20016;-51
2024/04/09 05:27:35;;;;;;;9.18;5.50;;;13.80;99.90;;;;;;5338398;26;20066;-51
2024/04/09 05:30:01;;;;;;;9.82;4.55;;;13.90;99.90;;;;;;5332569;26;20001;-50
2024/04/09 05:32:28;;;;;;;12.38;4.90;;;14.00;99.90;;;;;;5332305;26;20007;-52
2024/04/09 05:34:53;;;;;;;11.10;4.88;;;14.10;99.90;;;;;;5334334;26;20023;-54
2024/04/09 05:37:20;;;;;;;7.15;4.15;;;14.20;99.90;;;;;;5335766;26;20008;-52
2024/04/09 05:39:46;;;;;;;9.88;4.57;;;14.30;99.90;;;;;;5331902;26;20457;-55
2024/04/09 05:42:13;;;;;;;6.97;4.00;;;14.30;99.90;;;;;;5332080;26;20023;-56
2024/04/09 05:44:39;;;;;;;5.53;4.03;;;14.40;99.90;;;;;;5333750;26;20028;-53
2024/04/09 05:47:05;;;;;;;5.30;4.10;;;14.40;99.90;;;;;;5336343;26;20164;-53
2024/04/09 05:49:34;;;;;;;11.80;4.63;;;14.40;99.90;;;;;;5337773;26;20015;-54
2024/04/09 05:52:00;;;;;;;8.75;4.38;;;14.50;99.90;;;;;;5331601;26;19997;-54
2024/04/09 05:54:26;;;;;;;5.30;3.40;;;14.50;99.90;;;;;;5331243;26;20011;-56
2024/04/09 05:56:52;;;;;;;8.63;4.03;;;14.60;99.90;;;;;;5333791;26;20005;-55
2024/04/09 05:59:18;;;;;;;4.82;3.80;;;14.60;99.90;;;;;;5333336;26;20365;-51
2024/04/09 06:01:44;;;;;;;8.10;3.53;;;14.70;99.90;;;;;;5337933;26;20000;-55
2024/04/09 06:04:10;;;;;;;7.57;4.10;;;14.70;99.90;;;;;;5339299;26;20327;-55
2024/04/09 06:06:36;;;;;;;10.07;5.10;;;14.80;99.90;;;;;;5333818;26;20001;-53
2024/04/09 06:09:03;;;;;;;8.38;4.32;;;14.80;99.90;;;;;;5340945;26;19997;-56
2024/04/09 06:11:28;;;;;;;9.90;4.30;;;14.90;99.90;;;;;;5306168;26;20038;-53
2024/04/09 06:13:55;;;;;;;8.30;3.55;;;14.90;99.90;;;;;;5333486;26;20436;-53
2024/04/09 06:16:21;;;;;;;8.13;3.80;;;15.00;99.90;;;;;;5339614;26;19998;-55
2024/04/09 06:18:47;;;;;;;9.18;4.25;;;15.00;99.90;;;;;;5334972;26;19997;-55
2024/04/09 06:21:12;;;;;;;7.22;3.72;;;15.00;99.90;;;;;;5332620;26;20017;-56
2024/04/09 06:23:38;;;;;;;8.32;3.80;;;15.00;99.90;;;;;;5334239;26;20505;-54
2024/04/09 06:26:04;;;;;;;7.68;3.97;;;15.10;99.90;;;;;;5334454;26;20025;-52
2024/04/09 06:28:30;;;;;;;6.85;3.83;;;15.20;99.90;;;;;;5310250;26;20001;-53
2024/04/09 06:30:55;;;;;;;7.63;4.40;;;15.20;99.90;;;;;;5328119;26;20562;-59
2024/04/09 06:33:22;;;;;;;7.90;3.97;;;15.20;99.90;;;;;;5336008;26;20064;-54
2024/04/09 06:35:47;;;;;;;5.53;3.75;;;15.20;99.90;;;;;;5334789;26;20846;-52
2024/04/09 06:38:15;;;;;;;8.40;4.47;;;15.30;99.90;;;;;;5334581;26;20000;-51
2024/04/09 06:40:41;;;;;;;7.47;3.63;;;15.30;99.90;;;;;;5305604;26;20008;-54
2024/04/09 06:43:07;;;;;;;7.95;4.22;;;15.30;99.90;;;;;;5336840;26;20000;-55
2024/04/09 06:45:32;;;;;;;10.57;5.50;;;15.40;99.90;;;;;;5335888;26;19993;-51
2024/04/09 06:47:58;;;;;;;6.18;3.70;;;15.40;99.90;;;;;;5338481;26;20115;-51
2024/04/09 06:50:24;;;;;;;9.00;3.65;;;15.40;99.90;;;;;;5312612;26;19997;-54
2024/04/09 06:52:50;;;;;;;11.60;3.78;;;15.40;99.90;;;;;;5334951;26;20156;-54
2024/04/09 06:55:16;;;;;;;13.18;4.93;;;15.50;99.90;;;;;;5331299;26;20005;-52
2024/04/09 06:57:42;;;;;;;7.65;4.13;;;15.50;99.90;;;;;;5336987;26;20001;-53
2024/04/09 07:00:08;;;;;;;14.68;5.28;;;15.50;99.90;;;;;;5338449;26;20001;-54
2024/04/09 07:02:33;;;;;;;15.40;4.78;;;15.50;99.90;;;;;;5336427;26;20001;-55
2024/04/09 07:04:59;;;;;;;9.02;4.20;;;15.50;99.90;;;;;;5333149;26;20056;-59
2024/04/09 07:07:25;;;;;;;7.32;4.22;;;15.50;99.90;;;;;;5334071;26;20007;-51
2024/04/09 07:09:52;;;;;;;11.10;4.50;;;15.50;99.90;;;;;;5317257;26;20049;-58
2024/04/09 07:12:18;;;;;;;9.13;4.15;;;15.60;99.90;;;;;;5335212;26;20001;-55
2024/04/09 07:14:43;;;;;;;9.38;3.78;;;15.60;99.90;;;;;;5332741;26;20445;-55
2024/04/09 07:17:09;;;;;;;9.27;4.07;;;15.60;99.90;;;;;;5335296;26;20040;-52
2024/04/09 07:19:34;;;;;;;8.18;3.38;;;15.70;99.90;;;;;;5304671;26;20010;-53
2024/04/09 07:22:00;;;;;;;9.68;3.95;;;15.70;99.90;;;;;;5331855;26;20042;-52
2024/04/09 07:24:26;;;;;;;8.18;3.67;;;15.80;99.90;;;;;;5333957;26;20016;-56
2024/04/09 07:26:51;;;;;;;8.48;3.75;;;15.80;99.90;;;;;;5333125;26;20016;-51
2024/04/09 07:29:18;;;;;;;10.93;4.07;;;15.90;99.90;;;;;;5336758;26;20001;-50
2024/04/09 07:31:44;;;;;;;10.70;4.50;;;16.00;99.90;;;;;;5330898;26;20000;-55
2024/04/09 07:34:09;;;;;;;6.65;3.75;;;16.00;99.90;;;;;;5274195;26;20593;-51
2024/04/09 07:36:35;;;;;;;11.38;5.18;;;16.10;99.90;;;;;;5334458;26;19992;-53
2024/04/09 07:39:01;;;;;;;8.82;3.63;;;16.10;99.90;;;;;;5335971;26;20013;-52
2024/04/09 07:41:26;;;;;;;11.73;3.70;;;16.20;99.90;;;;;;5332151;26;19997;-56
2024/04/09 07:43:52;;;;;;;8.60;3.67;;;16.30;99.90;;;;;;5333509;26;20004;-55
2024/04/09 07:46:19;;;;;;;6.07;3.28;;;16.40;99.90;;;;;;5328838;26;20070;-52
2024/04/09 07:48:45;;;;;;;11.43;3.53;;;16.40;99.90;;;;;;5305244;26;20005;-54
2024/04/09 07:51:11;;;;;;;7.47;4.03;;;16.50;99.90;;;;;;5334226;26;20475;-54
2024/04/09 07:53:38;;;;;;;12.45;4.68;;;16.50;99.90;;;;;;5329060;26;20005;-52
2024/04/09 07:56:12;;;;;;;9.70;3.05;;;16.60;99.90;;;;;;5315243;26;20001;-54
2024/04/09 07:58:38;;;;;;;5.47;3.30;;;16.50;99.90;;;;;;5334566;26;20009;-52
2024/04/09 08:01:04;;;;;;;11.10;3.92;;;16.50;99.90;;;;;;5334003;26;20350;-53
2024/04/09 08:03:30;;;;;;;7.97;3.50;;;16.50;99.90;;;;;;5329033;26;20013;-51
2024/04/09 08:05:55;;;;;;;12.70;4.45;;;16.60;99.90;;;;;;5330523;26;20485;-55
2024/04/09 08:08:21;;;;;;;8.38;3.67;;;16.60;99.90;;;;;;5334580;26;20001;-56
2024/04/09 08:10:48;;;;;;;9.10;3.10;;;16.70;99.90;;;;;;5335564;26;20000;-55
2024/04/09 08:13:13;;;;;;;12.55;4.53;;;16.70;99.90;;;;;;5333359;26;20626;-54
2024/04/09 08:15:39;;;;;;;10.75;3.88;;;16.80;99.90;;;;;;5337583;26;20012;-56
2024/04/09 08:18:04;;;;;;;6.75;3.55;;;16.80;99.90;;;;;;5331596;26;19993;-56
2024/04/09 08:20:30;;;;;;;8.48;3.45;;;16.80;99.90;;;;;;5332679;26;19997;-53
2024/04/09 08:22:56;;;;;;;5.85;2.90;;;16.80;99.90;;;;;;5331380;26;19997;-53
2024/04/09 08:25:21;;;;;;;11.80;4.30;;;16.80;99.90;;;;;;5334719;26;20016;-52
2024/04/09 08:27:47;;;;;;;5.90;3.15;;;16.80;99.90;;;;;;5339684;26;20008;-56
2024/04/09 08:30:17;;;;;;;7.00;3.85;;;16.80;99.90;;;;;;5303548;26;20329;-53
2024/04/09 08:32:44;;;;;;;8.45;3.20;;;16.80;99.90;;;;;;5333547;26;20029;-56
2024/04/09 08:35:13;;;;;;;8.90;2.58;;;16.80;99.90;;;;;;5329728;26;20002;-54
2024/04/09 08:37:41;;;;;;;9.25;2.97;;;16.80;99.90;;;;;;5329479;26;20012;-55
2024/04/09 08:40:09;;;;;;;7.30;2.95;;;16.70;99.90;;;;;;5329266;26;20015;-57
2024/04/09 08:42:38;;;;;;;8.30;2.97;;;16.80;99.90;;;;;;5331421;26;20013;-53
2024/04/09 08:45:15;;;;;;;6.82;2.78;;;16.80;99.90;;;;;;5330156;26;20053;-56
2024/04/09 08:47:43;;;;;;;9.75;2.65;;;16.80;99.90;;;;;;5334844;26;20362;-57
2024/04/09 08:50:08;;;;;;;9.25;3.40;;;16.80;99.90;;;;;;5300312;26;20835;-53
2024/04/09 08:52:34;;;;;;;7.45;2.95;;;16.90;99.90;;;;;;5333432;26;20009;-51
2024/04/09 08:55:01;;;;;;;4.53;2.35;;;17.00;99.90;;;;;;5328393;26;20004;-58
2024/04/09 08:57:30;;;;;;;7.35;2.40;;;17.00;99.90;;;;;;5335598;26;20071;-52
2024/04/09 08:59:57;;;;;;;9.68;2.63;;;17.20;99.90;;;;;;5335667;26;20034;-55
2024/04/09 09:02:23;;;;;;;4.35;2.08;;;17.40;99.90;;;;;;5305797;26;20001;-53
2024/04/09 09:04:49;;;;;;;5.50;2.53;;;17.40;99.90;;;;;;5335552;26;20074;-56
2024/04/09 09:07:22;;;;;;;4.47;2.15;;;17.50;99.90;;;;;;5337839;26;20012;-53
2024/04/09 09:09:48;;;;;;;3.88;2.22;;;17.60;99.90;;;;;;5312311;26;19993;-55
2024/04/09 09:12:17;;;;;;;4.07;2.00;;;17.70;99.90;;;;;;5333931;26;20036;-57
2024/04/09 09:14:52;;;;;;;5.25;2.13;;;17.80;99.90;;;;;;5336095;26;20070;-53
2024/04/09 09:17:17;;;;;;;5.20;2.55;;;17.90;99.90;;;;;;5338735;26;20000;-55
2024/04/09 09:19:43;;;;;;;4.65;1.75;;;17.90;99.90;;;;;;5334743;26;20008;-56
2024/04/09 09:22:12;;;;;;;3.55;1.58;;;18.10;99.90;;;;;;5334519;26;19997;-53
2024/04/09 09:24:40;;;;;;;4.93;2.15;;;18.30;99.90;;;;;;5336629;26;20487;-55
2024/04/09 09:27:08;;;;;;;6.13;2.13;;;18.50;99.90;;;;;;5307512;26;20033;-55
2024/04/09 09:29:34;;;;;;;4.43;2.35;;;18.70;99.90;;;;;;5335710;26;20001;-56
2024/04/09 09:32:00;;;;;;;5.38;2.20;;;18.80;99.90;;;;;;5310227;26;20001;-50
2024/04/09 09:34:39;;;;;;;4.05;2.10;;;18.80;99.90;;;;;;5334864;26;20590;-52
2024/04/09 09:37:07;;;;;;;5.80;2.28;;;18.80;99.90;;;;;;5332179;26;19997;-54
2024/04/09 09:39:35;;;;;;;6.75;2.33;;;18.90;99.90;;;;;;5336484;26;20020;-50
2024/04/09 09:42:01;;;;;;;8.65;2.13;;;18.90;99.90;;;;;;5336974;26;20012;-53
2024/04/09 09:44:29;;;;;;;6.47;2.55;;;19.00;99.90;;;;;;5333304;26;20021;-54
2024/04/09 09:46:56;;;;;;;10.50;2.65;;;19.00;99.90;;;;;;5335159;26;20023;-58
2024/04/09 09:49:24;;;;;;;5.63;2.10;;;19.10;99.90;;;;;;5333021;26;20013;-53
2024/04/09 09:51:51;;;;;;;4.15;2.20;;;19.10;99.90;;;;;;5302686;26;20624;-57
2024/04/09 09:54:17;;;;;;;3.75;1.92;;;19.10;99.90;;;;;;5332077;26;20781;-55
2024/04/09 09:56:48;;;;;;;4.40;1.80;;;19.00;99.90;;;;;;5336678;26;20074;-54
2024/04/09 09:59:16;;;;;;;3.85;2.05;;;18.90;99.90;;;;;;5338336;26;20019;-52
2024/04/09 10:01:48;;;;;;;6.40;3.08;;;18.80;99.90;;;;;;5334515;26;19996;-52
2024/04/09 10:04:16;;;;;;;4.03;2.40;;;18.60;99.90;;;;;;5306377;26;20017;-52
2024/04/09 10:06:41;;;;;;;4.38;2.47;;;18.50;99.90;;;;;;5332686;26;20097;-52
2024/04/09 10:09:07;;;;;;;5.22;2.50;;;18.40;99.90;;;;;;5339118;26;20020;-54
2024/04/09 10:11:43;;;;;;;2.88;2.30;;;18.30;99.90;;;;;;5331835;26;20000;-56
2024/04/09 10:14:08;;;;;;;5.70;3.55;;;18.10;99.90;;;;;;5336625;26;20012;-58
2024/04/09 10:16:34;;;;;;;5.18;2.85;;;18.00;99.90;;;;;;5332898;26;20003;-55
2024/04/09 10:19:01;;;;;;;7.05;3.35;;;17.80;99.90;;;;;;5335935;26;20001;-53
2024/04/09 10:21:28;;;;;;;4.90;3.58;;;17.70;99.90;;;;;;5333118;26;20047;-52
2024/04/09 10:23:59;;;;;;;10.93;4.10;;;17.70;99.90;;;;;;5337256;26;20078;-54
2024/04/09 10:26:25;;;;;;;6.35;3.65;;;17.60;99.90;;;;;;5303967;26;19993;-51
2024/04/09 10:29:02;;;;;;;4.90;3.92;;;17.40;99.90;;;;;;5306007;26;20005;-53
2024/04/09 10:31:30;;;;;;;9.75;3.60;;;17.40;99.90;;;;;;5305282;26;20009;-51
2024/04/09 10:33:58;;;;;;;3.90;3.00;;;17.40;99.90;;;;;;5333811;26;20012;-53
2024/04/09 10:36:24;;;;;;;6.20;2.90;;;17.40;99.90;;;;;;5331908;26;20048;-52
2024/04/09 10:38:50;;;;;;;5.38;2.97;;;17.30;99.90;;;;;;5336289;26;20048;-53
2024/04/09 10:41:16;;;;;;;6.57;3.00;;;17.30;99.90;;;;;;5335819;26;20031;-52
2024/04/09 10:43:46;;;;;;;5.30;3.35;;;17.30;99.90;;;;;;5332872;26;20005;-56
2024/04/09 10:46:11;;;;;;;4.68;3.38;;;17.20;99.90;;;;;;5332701;26;20019;-54
2024/04/09 10:48:39;;;;;;;3.92;3.50;;;17.30;99.90;;;;;;5337900;26;20972;-52
2024/04/09 10:51:06;;;;;;;3.90;3.10;;;17.30;99.90;;;;;;5306563;26;20012;-54
2024/04/09 10:53:35;;;;;;;8.50;3.53;;;17.30;99.90;;;;;;5332682;26;20029;-53
2024/04/09 10:56:01;;;;;;;5.07;4.32;;;17.20;99.90;;;;;;5338433;26;20007;-53
2024/04/09 10:58:27;;;;;;;5.50;3.53;;;17.20;99.90;;;;;;5331901;26;20001;-49
2024/04/09 11:00:56;;;;;;;4.25;3.75;;;17.20;99.90;;;;;;5334507;26;20358;-49
2024/04/09 11:03:23;;;;;;;7.57;4.28;;;17.10;99.90;;;;;;5330360;26;20029;-55
2024/04/09 11:05:52;;;;;;;6.47;3.83;;;17.00;99.90;;;;;;5332597;26;20011;-48
2024/04/09 11:08:26;;;;;;;7.28;3.65;;;16.90;99.90;;;;;;5337620;26;20527;-52
2024/04/09 11:10:52;;;;;;;7.22;4.30;;;16.90;99.90;;;;;;5337331;26;20001;-56
2024/04/09 11:13:19;;;;;;;3.83;3.53;;;16.90;99.90;;;;;;5335239;26;20489;-54
2024/04/09 11:15:44;;;;;;;4.47;4.07;;;16.90;99.90;;;;;;5338857;26;20003;-53
2024/04/09 11:18:20;;;;;;;7.07;4.90;;;16.90;99.90;;;;;;5333023;26;20013;-57
2024/04/09 11:20:52;;;;;;;;;;;16.80;99.90;;;;;;5335818;26;19993;-54
2024/04/09 11:23:21;;;;;;;5.75;4.43;;;16.70;99.90;;;;;;5299511;26;19945;-52
2024/04/09 11:25:46;;;;;;;5.40;4.25;;;16.70;99.90;;;;;;5339798;26;20005;-55
2024/04/09 11:28:14;;;;;;;5.47;4.13;;;16.70;99.90;;;;;;5336003;26;19997;-47
2024/04/09 11:30:46;;;;;;;5.35;4.57;;;16.60;99.90;;;;;;5333416;26;20012;-51
2024/04/09 11:33:14;;;;;;;9.10;4.43;;;16.60;99.90;;;;;;5332297;26;20008;-50
2024/04/09 11:35:40;;;;;;;4.80;4.38;;;16.50;99.90;;;;;;5304978;26;20008;-49
2024/04/09 11:38:06;;;;;;;5.85;4.28;;;16.50;99.90;;;;;;5333629;26;20484;-54
2024/04/09 11:40:32;;;;;;;7.80;5.40;;;16.50;99.90;;;;;;5329743;26;20079;-53
2024/04/09 11:42:59;;;;;;;4.78;3.92;;;16.40;99.90;;;;;;5337116;26;20037;-49
2024/04/09 11:45:29;;;;;;;8.32;4.72;;;16.40;99.90;;;;;;5334006;26;20001;-54
2024/04/09 11:47:55;;;;;;;4.78;4.15;;;16.20;99.90;;;;;;5329318;26;20051;-55
2024/04/09 11:50:24;;;;;;;7.35;4.55;;;16.00;99.90;;;;;;5334017;26;20441;-54
2024/04/09 11:52:50;;;;;;;4.68;3.47;;;15.90;99.90;;;;;;5304302;26;20009;-51
2024/04/09 11:55:16;;;;;;;8.90;3.97;;;15.80;99.90;;;;;;5332955;26;20005;-51
2024/04/09 11:57:44;;;;;;;4.53;3.00;;;15.80;99.90;;;;;;5333956;26;20008;-51
2024/04/09 12:00:13;;;;;;;7.05;3.97;;;15.80;99.90;;;;;;5330816;26;20016;-51
2024/04/09 12:02:40;;;;;;;3.30;3.00;;;15.90;99.90;;;;;;5329570;26;20004;-51
2024/04/09 12:05:06;;;;;;;4.47;3.40;;;16.00;99.90;;;;;;5331154;26;20013;-52
2024/04/09 12:07:31;;;;;;;5.85;3.70;;;16.10;99.90;;;;;;5339171;26;19997;-52
2024/04/09 12:09:57;;;;;;;4.47;4.03;;;16.20;99.90;;;;;;5334178;26;20001;-51
2024/04/09 12:12:23;;;;;;;9.60;3.75;;;16.30;99.90;;;;;;5338177;26;20007;-54
2024/04/09 12:14:49;;;;;;;7.03;3.17;;;16.40;99.90;;;;;;5330738;26;20009;-53
2024/04/09 12:17:14;;;;;;;8.45;4.70;;;16.40;99.90;;;;;;5333461;26;20052;-51
2024/04/09 12:19:40;;;;;;;4.82;3.30;;;16.20;99.90;;;;;;5333389;26;19997;-50
2024/04/09 12:22:06;;;;;;;2.53;2.20;;;16.10;99.90;;;;;;5301257;26;20005;-53
2024/04/09 12:24:32;;;;;;;4.05;1.98;;;16.10;99.90;;;;;;5332826;26;19997;-50
2024/04/09 12:26:58;;;;;;;5.57;2.30;;;16.00;99.90;;;;;;5336306;26;20008;-55
2024/04/09 12:29:28;;;;;;;6.18;1.70;;;15.90;99.90;;;;;;5336743;26;20001;-49
2024/04/09 12:31:59;;;;;;;6.20;1.88;;;15.80;99.90;;;;;;5336035;26;20005;-54
2024/04/09 12:34:26;;;;;;;3.65;1.60;;;15.70;99.90;;;;;;5340011;26;20448;-50
2024/04/09 12:36:52;;;;;;;5.68;2.17;;;15.70;99.90;;;;;;5312053;26;20005;-49
2024/04/09 12:39:18;;;;;;;3.85;1.60;;;15.70;99.90;;;;;;5335687;26;20408;-51